createdAt,value
2018-04-08T00:01:50.800Z,97537.56
2018-04-08T00:04:18.432Z,97538.03
2018-04-08T00:06:46.032Z,97535.08
2018-04-08T00:09:13.689Z,97541.94
2018-04-08T00:11:41.283Z,97534.20
2018-04-08T00:14:08.912Z,97532.93
2018-04-08T00:16:36.520Z,97526.82
2018-04-08T00:19:04.118Z,97521.50
2018-04-08T00:21:31.737Z,97527.11
2018-04-08T00:23:59.350Z,97524.02
2018-04-08T00:26:26.968Z,97526.33
2018-04-08T00:28:54.561Z,97529.61
2018-04-08T00:31:22.206Z,97521.50
2018-04-08T00:33:49.823Z,97520.87
2018-04-08T00:36:17.411Z,97516.91
2018-04-08T00:38:45.020Z,97513.25
2018-04-08T00:41:12.624Z,97514.76
2018-04-08T00:43:40.249Z,97510.78
2018-04-08T00:46:07.841Z,97509.09
2018-04-08T00:48:35.486Z,97508.22
2018-04-08T00:51:03.090Z,97513.30
2018-04-08T00:53:30.687Z,97503.66
2018-04-08T00:55:58.314Z,97506.69
2018-04-08T00:58:26.420Z,97503.69
2018-04-08T01:00:55.726Z,97505.28
2018-04-08T01:03:23.322Z,97498.42
2018-04-08T01:05:51.105Z,97492.55
2018-04-08T01:08:18.725Z,97492.16
2018-04-08T01:10:46.320Z,97489.42
2018-04-08T01:13:14.164Z,97485.45
2018-04-08T01:15:41.759Z,97478.67
2018-04-08T01:18:09.367Z,97473.44
2018-04-08T01:20:36.999Z,97472.66
2018-04-08T01:23:04.617Z,97464.92
2018-04-08T01:25:32.249Z,97470.16
2018-04-08T01:27:59.900Z,97466.94
2018-04-08T01:30:27.528Z,97463.30
2018-04-08T01:32:55.124Z,97467.58
2018-04-08T01:35:23.130Z,97459.30
2018-04-08T01:37:50.734Z,97466.06
2018-04-08T01:40:18.337Z,97458.97
2018-04-08T01:42:45.976Z,97466.10
2018-04-08T01:45:13.573Z,97464.59
2018-04-08T01:47:41.199Z,97461.89
2018-04-08T01:50:08.788Z,97458.59
2018-04-08T01:52:36.672Z,97458.97
2018-04-08T01:55:04.263Z,97458.70
2018-04-08T01:57:31.852Z,97460.00
2018-04-08T01:59:59.474Z,97461.77
2018-04-08T02:02:27.073Z,97458.84
2018-04-08T02:04:54.701Z,97463.03
2018-04-08T02:07:22.304Z,97463.45
2018-04-08T02:09:50.300Z,97460.77
2018-04-08T02:12:17.894Z,97463.71
2018-04-08T02:14:45.489Z,97460.80
2018-04-08T02:17:13.130Z,97454.50
2018-04-08T02:19:40.728Z,97457.42
2018-04-08T02:22:08.340Z,97458.13
2018-04-08T02:24:35.924Z,97456.47
2018-04-08T02:27:03.726Z,97459.95
2018-04-08T02:29:31.321Z,97449.71
2018-04-08T02:31:58.933Z,97450.06
2018-04-08T02:34:26.571Z,97458.08
2018-04-08T02:36:54.172Z,97452.17
2018-04-08T02:39:21.805Z,97453.53
2018-04-08T02:41:49.507Z,97445.88
2018-04-08T02:44:17.129Z,97446.30
2018-04-08T02:46:44.734Z,97451.53
2018-04-08T02:49:12.335Z,97448.99
2018-04-08T02:51:39.950Z,97451.30
2018-04-08T02:54:07.558Z,97453.80
2018-04-08T02:56:36.100Z,97450.77
2018-04-08T02:59:03.730Z,97456.21
2018-04-08T03:01:31.513Z,97449.31
2018-04-08T03:03:59.105Z,97450.61
2018-04-08T03:06:26.723Z,97446.23
2018-04-08T03:08:54.335Z,97446.39
2018-04-08T03:11:21.926Z,97443.46
2018-04-08T03:13:49.548Z,97437.95
2018-04-08T03:16:17.133Z,97446.95
2018-04-08T03:18:45.059Z,97437.86
2018-04-08T03:21:12.652Z,97442.59
2018-04-08T03:23:40.240Z,97440.36
2018-04-08T03:26:07.854Z,97444.83
2018-04-08T03:28:35.443Z,97442.77
2018-04-08T03:31:03.054Z,97442.67
2018-04-08T03:33:30.644Z,97441.33
2018-04-08T03:35:58.489Z,97439.25
2018-04-08T03:38:26.086Z,97441.59
2018-04-08T03:40:53.673Z,97441.33
2018-04-08T03:43:21.298Z,97445.60
2018-04-08T03:45:48.888Z,97443.73
2018-04-08T03:48:16.496Z,97445.76
2018-04-08T03:50:44.087Z,97445.84
2018-04-08T03:53:11.710Z,97457.28
2018-04-08T03:55:39.295Z,97454.95
2018-04-08T03:58:06.881Z,97464.92
2018-04-08T04:00:34.494Z,97464.00
2018-04-08T04:03:02.132Z,97467.78
2018-04-08T04:05:29.723Z,97464.59
2018-04-08T04:07:57.320Z,97470.39
2018-04-08T04:10:25.146Z,97463.98
2018-04-08T04:12:52.743Z,97469.43
2018-04-08T04:15:20.336Z,97469.92
2018-04-08T04:17:47.947Z,97468.80
2018-04-08T04:20:27.350Z,97471.89
2018-04-08T04:23:06.620Z,97474.22
2018-04-08T04:28:40.525Z,97472.45
2018-04-08T04:31:08.124Z,97476.00
2018-04-08T04:33:35.732Z,97473.88
2018-04-08T04:36:03.315Z,97477.59
2018-04-08T04:38:31.087Z,97476.95
2018-04-08T04:40:58.688Z,97478.69
2018-04-08T04:43:26.284Z,97484.45
2018-04-08T04:45:53.900Z,97491.39
2018-04-08T04:48:21.505Z,97482.47
2018-04-08T04:50:49.115Z,97482.66
2018-04-08T04:53:16.719Z,97482.62
2018-04-08T04:55:44.337Z,97480.18
2018-04-08T04:58:11.931Z,97472.02
2018-04-08T05:00:39.832Z,97472.91
2018-04-08T05:03:07.424Z,97473.55
2018-04-08T05:05:35.021Z,97472.91
2018-04-08T05:08:02.649Z,97474.64
2018-04-08T05:10:30.233Z,97470.02
2018-04-08T05:12:57.895Z,97470.31
2018-04-08T05:15:25.610Z,97467.67
2018-04-08T05:17:53.701Z,97460.46
2018-04-08T05:20:21.304Z,97464.83
2018-04-08T05:22:48.901Z,97463.03
2018-04-08T05:25:16.517Z,97464.22
2018-04-08T05:27:44.110Z,97465.63
2018-04-08T05:30:11.724Z,97457.47
2018-04-08T05:32:39.311Z,97464.63
2018-04-08T05:35:06.947Z,97458.44
2018-04-08T05:37:34.540Z,97464.67
2018-04-08T05:40:02.152Z,97464.91
2018-04-08T05:42:29.760Z,97471.57
2018-04-08T05:44:57.360Z,97473.45
2018-04-08T05:47:24.982Z,97470.87
2018-04-08T05:49:52.577Z,97474.57
2018-04-08T05:52:20.332Z,97470.31
2018-04-08T05:54:47.925Z,97472.52
2018-04-08T05:57:15.519Z,97478.77
2018-04-08T05:59:43.160Z,97470.47
2018-04-08T06:02:10.777Z,97471.66
2018-04-08T06:04:38.413Z,97474.27
2018-04-08T06:07:06.005Z,97464.81
2018-04-08T06:09:33.973Z,97459.75
2018-04-08T06:12:01.574Z,97459.77
2018-04-08T06:14:29.180Z,97464.92
2018-04-08T06:16:56.800Z,97468.63
2018-04-08T06:19:24.404Z,97460.21
2018-04-08T06:21:52.385Z,97468.61
2018-04-08T06:24:19.995Z,97460.11
2018-04-08T06:26:47.595Z,97459.95
2018-04-08T06:29:15.212Z,97456.36
2018-04-08T06:31:42.820Z,97457.42
2018-04-08T06:34:10.476Z,97457.88
2018-04-08T06:36:38.073Z,97456.03
2018-04-08T06:39:06.403Z,97451.47
2018-04-08T06:41:34.036Z,97450.36
2018-04-08T06:44:01.662Z,97453.89
2018-04-08T06:46:29.300Z,97455.09
2018-04-08T06:48:56.907Z,97458.42
2018-04-08T06:51:24.522Z,97452.75
2018-04-08T06:53:52.171Z,97453.17
2018-04-08T06:56:19.825Z,97456.88
2018-04-08T06:58:47.842Z,97453.08
2018-04-08T07:01:15.504Z,97450.01
2018-04-08T07:03:43.108Z,97457.09
2018-04-08T07:06:10.736Z,97447.13
2018-04-08T07:08:38.408Z,97454.92
2018-04-08T07:11:06.456Z,97448.02
2018-04-08T07:13:34.055Z,97448.41
2018-04-08T07:16:01.660Z,97436.91
2018-04-08T07:18:29.302Z,97441.76
2018-04-08T07:20:56.914Z,97438.66
2018-04-08T07:23:24.561Z,97435.07
2018-04-08T07:25:52.177Z,97427.44
2018-04-08T07:28:19.778Z,97427.17
2018-04-08T07:30:47.405Z,97425.03
2018-04-08T07:33:15.001Z,97423.80
2018-04-08T07:35:42.622Z,97423.73
2018-04-08T07:38:10.224Z,97419.34
2018-04-08T07:40:37.827Z,97415.13
2018-04-08T07:43:05.444Z,97413.44
2018-04-08T07:45:33.119Z,97418.06
2018-04-08T07:48:01.484Z,97412.68
2018-04-08T07:50:29.087Z,97413.20
2018-04-08T07:52:56.733Z,97416.98
2018-04-08T07:55:24.337Z,97410.34
2018-04-08T07:57:51.941Z,97416.09
2018-04-08T08:00:19.565Z,97406.97
2018-04-08T08:02:47.160Z,97411.77
2018-04-08T08:05:14.878Z,97411.70
2018-04-08T08:07:42.488Z,97420.22
2018-04-08T08:10:10.267Z,97413.12
2018-04-08T08:12:37.874Z,97408.28
2018-04-08T08:15:05.464Z,97412.05
2018-04-08T08:17:33.085Z,97405.10
2018-04-08T08:20:00.688Z,97407.02
2018-04-08T08:22:28.314Z,97409.44
2018-04-08T08:24:55.918Z,97402.03
2018-04-08T08:27:23.566Z,97397.55
2018-04-08T08:29:51.173Z,97392.07
2018-04-08T08:32:18.770Z,97393.80
2018-04-08T08:34:46.396Z,97385.91
2018-04-08T08:37:14.003Z,97386.13
2018-04-08T08:39:41.632Z,97380.59
2018-04-08T08:42:09.236Z,97381.44
2018-04-08T08:44:37.112Z,97378.54
2018-04-08T08:47:04.717Z,97374.87
2018-04-08T08:49:32.317Z,97375.78
2018-04-08T08:52:00.012Z,97372.81
2018-04-08T08:54:27.624Z,97369.40
2018-04-08T08:56:55.244Z,97366.07
2018-04-08T08:59:22.871Z,97370.09
2018-04-08T09:01:50.764Z,97364.66
2018-04-08T09:04:18.362Z,97360.09
2018-04-08T09:06:46.016Z,97353.84
2018-04-08T09:09:13.621Z,97347.84
2018-04-08T09:11:41.232Z,97347.27
2018-04-08T09:14:08.856Z,97346.48
2018-04-08T09:16:36.457Z,97354.95
2018-04-08T09:22:28.409Z,97338.67
2018-04-08T09:24:57.784Z,97340.87
2018-04-08T09:27:25.387Z,97341.49
2018-04-08T09:29:52.980Z,97342.03
2018-04-08T09:32:20.600Z,97338.23
2018-04-08T09:34:48.199Z,97338.09
2018-04-08T09:37:15.836Z,97336.38
2018-04-08T09:39:43.436Z,97332.98
2018-04-08T09:42:11.103Z,97332.30
2018-04-08T09:44:38.704Z,97334.20
2018-04-08T09:47:06.316Z,97327.58
2018-04-08T09:49:33.945Z,97330.59
2018-04-08T09:52:01.540Z,97323.98
2018-04-08T09:54:29.178Z,97312.61
2018-04-08T09:56:56.793Z,97318.37
2018-04-08T09:59:24.448Z,97313.03
2018-04-08T10:01:54.849Z,97313.39
2018-04-08T10:04:22.470Z,97309.41
2018-04-08T10:06:50.072Z,97308.97
2018-04-08T10:09:17.953Z,97307.52
2018-04-08T10:11:45.562Z,97306.11
2018-04-08T10:14:13.174Z,97308.77
2018-04-08T10:16:40.831Z,97309.18
2018-04-08T10:19:08.436Z,97308.09
2018-04-08T10:21:36.090Z,97300.89
2018-04-08T10:24:03.698Z,97301.11
2018-04-08T10:26:31.346Z,97295.71
2018-04-08T10:28:58.941Z,97292.63
2018-04-08T10:31:26.609Z,97292.55
2018-04-08T10:33:54.230Z,97287.70
2018-04-08T10:36:21.840Z,97285.70
2018-04-08T10:38:49.500Z,97284.89
2018-04-08T10:41:17.096Z,97275.02
2018-04-08T10:43:44.698Z,97282.39
2018-04-08T10:46:12.317Z,97277.91
2018-04-08T10:48:39.930Z,97269.27
2018-04-08T10:51:07.809Z,97270.13
2018-04-08T10:53:35.399Z,97270.63
2018-04-08T10:56:02.987Z,97267.70
2018-04-08T10:58:30.604Z,97265.47
2018-04-08T11:00:58.210Z,97254.09
2018-04-08T11:03:25.825Z,97255.64
2018-04-08T11:05:53.423Z,97257.41
2018-04-08T11:08:21.081Z,97243.50
2018-04-08T11:10:48.674Z,97241.67
2018-04-08T11:13:16.343Z,97245.82
2018-04-08T11:15:43.975Z,97248.77
2018-04-08T11:18:11.581Z,97243.44
2018-04-08T11:20:39.252Z,97244.61
2018-04-08T11:23:06.842Z,97242.23
2018-04-08T11:25:34.844Z,97233.42
2018-04-08T11:28:03.948Z,97231.24
2018-04-08T11:30:31.545Z,97232.09
2018-04-08T11:32:59.175Z,97222.85
2018-04-08T11:35:26.794Z,97223.09
2018-04-08T11:37:54.412Z,97225.90
2018-04-08T11:40:22.440Z,97226.23
2018-04-08T11:42:50.057Z,97219.52
2018-04-08T11:45:17.658Z,97210.52
2018-04-08T11:47:45.460Z,97211.99
2018-04-08T11:50:13.084Z,97205.98
2018-04-08T11:52:40.694Z,97199.55
2018-04-08T11:55:08.329Z,97199.26
2018-04-08T11:57:35.927Z,97200.52
2018-04-08T12:00:03.595Z,97193.69
2018-04-08T12:02:31.191Z,97187.39
2018-04-08T12:04:59.026Z,97193.05
2018-04-08T12:07:26.621Z,97181.99
2018-04-08T12:09:54.215Z,97181.19
2018-04-08T12:12:21.845Z,97175.58
2018-04-08T12:14:49.460Z,97169.90
2018-04-08T12:17:17.109Z,97176.78
2018-04-08T12:19:45.030Z,97167.55
2018-04-08T12:22:12.815Z,97171.86
2018-04-08T12:24:40.420Z,97165.97
2018-04-08T12:27:08.019Z,97165.19
2018-04-08T12:29:35.645Z,97165.98
2018-04-08T12:32:03.444Z,97163.23
2018-04-08T12:34:31.064Z,97163.58
2018-04-08T12:36:59.759Z,97152.36
2018-04-08T12:39:27.405Z,97146.64
2018-04-08T12:41:55.020Z,97146.84
2018-04-08T12:44:22.636Z,97145.80
2018-04-08T12:46:50.248Z,97134.22
2018-04-08T12:49:17.855Z,97141.58
2018-04-08T12:51:45.698Z,97138.64
2018-04-08T12:54:13.294Z,97136.33
2018-04-08T12:56:40.884Z,97134.77
2018-04-08T12:59:08.537Z,97132.30
2018-04-08T13:56:13.511Z,97063.80
2018-04-08T13:58:41.136Z,97060.59
2018-04-08T14:01:08.720Z,97051.99
2018-04-08T14:03:36.328Z,97041.43
2018-04-08T14:06:03.916Z,97044.19
2018-04-08T14:08:31.536Z,97051.44
2018-04-08T14:10:59.127Z,97048.97
2018-04-08T14:13:27.168Z,97046.34
2018-04-08T14:15:54.762Z,97043.94
2018-04-08T14:18:22.364Z,97044.41
2018-04-08T14:20:49.976Z,97042.42
2018-04-08T14:23:17.566Z,97041.89
2018-04-08T14:25:45.196Z,97041.18
2018-04-08T14:28:12.826Z,97038.48
2018-04-08T14:30:40.455Z,97035.77
2018-04-08T14:33:08.056Z,97038.35
2018-04-08T14:35:35.702Z,97028.86
2018-04-08T14:38:03.385Z,97040.77
2018-04-08T14:40:30.986Z,97037.31
2018-04-08T14:42:58.611Z,97031.79
2018-04-08T14:45:26.207Z,97030.63
2018-04-08T14:47:53.939Z,97035.84
2018-04-08T14:50:21.532Z,97035.97
2018-04-08T14:52:49.124Z,97032.12
2018-04-08T14:55:16.751Z,97030.02
2018-04-08T14:57:44.348Z,97031.20
2018-04-08T15:00:11.982Z,97033.14
2018-04-08T15:02:39.569Z,97029.22
2018-04-08T15:05:07.456Z,97027.63
2018-04-08T15:07:35.052Z,97030.00
2018-04-08T15:10:02.676Z,97032.56
2018-04-08T15:12:30.304Z,97031.64
2018-04-08T15:14:57.901Z,97023.78
2018-04-08T15:17:25.536Z,97030.55
2018-04-08T15:19:53.132Z,97020.45
2018-04-08T15:22:20.898Z,97021.67
2018-04-08T15:24:48.489Z,97023.27
2018-04-08T15:27:16.100Z,97017.41
2018-04-08T15:29:43.789Z,97017.62
2018-04-08T15:32:11.389Z,97015.27
2018-04-08T15:34:39.013Z,97019.02
2018-04-08T15:37:06.620Z,97018.41
2018-04-08T15:39:34.419Z,97007.62
2018-04-08T15:42:02.047Z,97008.42
2018-04-08T15:44:29.642Z,97007.46
2018-04-08T15:46:57.255Z,97003.55
2018-04-08T15:49:24.856Z,97004.32
2018-04-08T15:51:52.492Z,97006.10
2018-04-08T15:54:20.088Z,96998.86
2018-04-08T15:56:48.079Z,96992.19
2018-04-08T15:59:15.684Z,96996.50
2018-04-08T16:01:44.236Z,97001.99
2018-04-08T16:04:11.893Z,96998.84
2018-04-08T16:06:39.483Z,97005.09
2018-04-08T16:09:07.105Z,96996.59
2018-04-08T16:11:34.700Z,96999.91
2018-04-08T16:14:02.326Z,96999.25
2018-04-08T16:16:29.922Z,97004.73
2018-04-08T16:18:57.520Z,97005.39
2018-04-08T16:21:25.147Z,97009.25
2018-04-08T16:23:52.732Z,97003.70
2018-04-08T16:26:20.349Z,97001.98
2018-04-08T16:28:47.931Z,97004.34
2018-04-08T16:31:15.731Z,97007.33
2018-04-08T16:33:43.326Z,97009.75
2018-04-08T16:36:10.924Z,97012.53
2018-04-08T16:38:38.546Z,97009.27
2018-04-08T16:41:06.250Z,97007.49
2018-04-08T16:43:33.871Z,97003.19
2018-04-08T16:46:01.455Z,97002.01
2018-04-08T16:48:29.106Z,97003.02
2018-04-08T16:50:56.699Z,97010.83
2018-04-08T16:53:24.302Z,97007.03
2018-04-08T16:55:51.912Z,97008.99
2018-04-08T16:58:19.517Z,97015.75
2018-04-08T17:00:47.145Z,97012.79
2018-04-08T17:03:14.741Z,97008.27
2018-04-08T17:05:42.552Z,97005.31
2018-04-08T17:08:10.208Z,97010.74
2018-04-08T17:10:37.784Z,97005.42
2018-04-08T17:13:05.419Z,97008.05
2018-04-08T17:15:33.052Z,97008.99
2018-04-08T17:18:00.684Z,97004.70
2018-04-08T17:20:28.284Z,97001.17
2018-04-08T17:22:55.905Z,97007.54
2018-04-08T17:25:23.606Z,97005.09
2018-04-08T17:27:52.468Z,97003.34
2018-04-08T17:30:20.478Z,97005.91
2018-04-08T17:32:48.095Z,97005.45
2018-04-08T17:35:15.769Z,97012.89
2018-04-08T17:37:43.357Z,97008.48
2018-04-08T17:40:10.969Z,97012.57
2018-04-08T17:42:38.608Z,97014.66
2018-04-08T17:45:06.213Z,97015.58
2018-04-08T17:47:34.660Z,97016.16
2018-04-08T17:50:02.284Z,97022.06
2018-04-08T17:52:29.873Z,97025.50
2018-04-08T17:54:57.628Z,97020.52
2018-04-08T17:57:25.230Z,97023.99
2018-04-08T17:59:52.840Z,97031.14
2018-04-08T18:02:20.446Z,97031.41
2018-04-08T18:04:48.255Z,97034.23
2018-04-08T18:07:15.845Z,97044.53
2018-04-08T18:09:43.436Z,97045.55
2018-04-08T18:12:11.053Z,97050.07
2018-04-08T18:14:38.643Z,97061.39
2018-04-08T18:17:06.262Z,97056.23
2018-04-08T18:19:33.857Z,97056.08
2018-04-08T18:22:01.495Z,97055.27
2018-04-08T18:24:29.098Z,97059.87
2018-04-08T18:26:56.696Z,97060.62
2018-04-08T18:29:24.312Z,97061.20
2018-04-08T18:31:51.908Z,97071.96
2018-04-08T18:34:19.533Z,97082.87
2018-04-08T18:36:47.138Z,97090.51
2018-04-08T18:39:15.015Z,97087.50
2018-04-08T18:41:42.621Z,97098.01
2018-04-08T18:44:10.241Z,97097.30
2018-04-08T18:46:37.867Z,97106.39
2018-04-08T18:49:05.461Z,97109.78
2018-04-08T18:51:33.085Z,97119.36
2018-04-08T18:54:00.680Z,97110.73
2018-04-08T18:56:28.554Z,97117.98
2018-04-08T18:58:56.156Z,97115.53
2018-04-08T19:01:23.747Z,97115.27
2018-04-08T19:03:51.355Z,97116.94
2018-04-08T19:06:18.953Z,97124.74
2018-04-08T19:08:46.588Z,97119.72
2018-04-08T19:11:14.188Z,97126.84
2018-04-08T19:13:41.976Z,97121.70
2018-04-08T19:16:09.576Z,97120.52
2018-04-08T19:18:37.185Z,97118.60
2018-04-08T19:21:04.839Z,97127.58
2018-04-08T19:23:32.426Z,97129.88
2018-04-08T19:26:00.038Z,97131.83
2018-04-08T19:28:27.639Z,97127.19
2018-04-08T19:30:55.276Z,97127.20
2018-04-08T19:33:22.875Z,97117.59
2018-04-08T19:35:50.467Z,97117.70
2018-04-08T19:38:18.088Z,97119.45
2018-04-08T19:40:45.704Z,97109.95
2018-04-08T19:43:13.313Z,97116.65
2018-04-08T19:45:40.933Z,97123.16
2018-04-08T19:48:08.562Z,97116.97
2018-04-08T19:50:36.158Z,97118.94
2018-04-08T19:53:03.778Z,97115.69
2018-04-08T19:55:31.372Z,97113.36
2018-04-08T19:57:59.011Z,97106.42
2018-04-08T20:00:26.613Z,97106.17
2018-04-08T20:02:54.268Z,97110.98
2018-04-08T20:05:21.856Z,97114.36
2018-04-08T20:07:49.466Z,97114.02
2018-04-08T20:10:17.086Z,97107.23
2018-04-08T20:12:44.673Z,97102.76
2018-04-08T20:15:12.299Z,97102.08
2018-04-08T20:17:39.890Z,97100.47
2018-04-08T20:20:07.500Z,97103.17
2018-04-08T20:22:35.112Z,97099.39
2018-04-08T20:25:02.703Z,97104.09
2018-04-08T20:27:30.348Z,97111.02
2018-04-08T20:29:57.940Z,97113.91
2018-04-08T20:32:25.745Z,97110.01
2018-04-08T20:34:53.345Z,97112.00
2018-04-08T20:37:20.933Z,97115.75
2018-04-08T20:39:48.555Z,97118.30
2018-04-08T20:42:16.144Z,97128.59
2018-04-08T20:44:43.775Z,97123.74
2018-04-08T20:47:11.400Z,97116.56
2018-04-08T20:49:38.998Z,97112.59
2018-04-08T20:52:06.639Z,97115.54
2018-04-08T20:54:34.229Z,97113.86
2018-04-08T20:57:01.876Z,97104.25
2018-04-08T20:59:29.472Z,97109.29
2018-04-08T21:01:57.088Z,97113.09
2018-04-08T21:04:24.682Z,97109.24
2018-04-08T21:06:52.615Z,97110.91
2018-04-08T21:09:20.224Z,97108.59
2018-04-08T21:11:47.813Z,97103.00
2018-04-08T21:14:15.436Z,97106.02
2018-04-08T21:16:43.035Z,97102.17
2018-04-08T21:19:11.024Z,97105.84
2018-04-08T21:21:38.628Z,97104.27
2018-04-08T21:24:06.226Z,97102.73
2018-04-08T21:26:33.851Z,97102.52
2018-04-08T21:29:01.458Z,97112.02
2018-04-08T21:31:29.341Z,97101.44
2018-04-08T21:33:56.932Z,97100.74
2018-04-08T21:36:24.544Z,97104.77
2018-04-08T21:38:52.160Z,97097.64
2018-04-08T21:41:19.756Z,97100.60
2018-04-08T21:43:47.373Z,97101.55
2018-04-08T21:46:14.959Z,97098.41
2018-04-08T21:48:42.773Z,97104.20
2018-04-08T21:51:10.370Z,97109.17
2018-04-08T21:53:37.999Z,97104.95
2018-04-08T21:56:05.613Z,97098.49
2018-04-08T21:58:33.205Z,97104.78
2018-04-08T22:01:00.856Z,97102.33
2018-04-08T22:03:28.447Z,97104.17
2018-04-08T22:05:56.207Z,97095.88
2018-04-08T22:08:23.821Z,97095.48
2018-04-08T22:10:51.413Z,97092.33
2018-04-08T22:13:19.094Z,97087.94
2018-04-08T22:15:46.699Z,97094.31
2018-04-08T22:18:14.293Z,97101.91
2018-04-08T22:20:42.032Z,97096.13
2018-04-08T22:23:09.625Z,97094.79
2018-04-08T22:25:37.472Z,97092.55
2018-04-08T22:28:05.072Z,97089.98
2018-04-08T22:30:32.932Z,97090.22
2018-04-08T22:33:00.528Z,97095.85
2018-04-08T22:35:28.126Z,97106.28
2018-04-08T22:37:55.745Z,97106.67
2018-04-08T22:40:23.344Z,97099.52
2018-04-08T22:42:50.981Z,97103.91
2018-04-08T22:45:18.576Z,97099.13
2018-04-08T22:47:46.238Z,97094.08
2018-04-08T22:50:13.835Z,97097.99
2018-04-08T22:52:41.438Z,97099.01
2018-04-08T22:55:09.102Z,97102.36
2018-04-08T22:57:36.713Z,97108.22
2018-04-08T23:00:04.366Z,97107.06
2018-04-08T23:02:31.985Z,97108.15
2018-04-08T23:04:59.854Z,97108.16
2018-04-08T23:07:27.460Z,97106.66
2018-04-08T23:09:55.090Z,97101.72
2018-04-08T23:12:22.781Z,97101.84
2018-04-08T23:14:50.397Z,97097.16
2018-04-08T23:17:18.044Z,97103.36
2018-04-08T23:19:45.667Z,97098.11
2018-04-08T23:22:13.556Z,97099.81
2018-04-08T23:24:41.181Z,97107.52
2018-04-08T23:27:08.825Z,97099.75
2018-04-08T23:29:36.481Z,97100.94
2018-04-08T23:32:04.104Z,97089.73
2018-04-08T23:34:31.810Z,97087.33
2018-04-08T23:36:59.438Z,97081.09
2018-04-08T23:39:27.109Z,97090.03
2018-04-08T23:41:54.734Z,97093.03
2018-04-08T23:44:22.365Z,97090.47
2018-04-08T23:46:50.016Z,97089.46
2018-04-08T23:49:17.649Z,97082.03
2018-04-08T23:51:45.298Z,97080.18
2018-04-08T23:54:12.928Z,97079.39
2018-04-08T23:56:40.732Z,97078.73
2018-04-08T23:59:08.357Z,97076.95
